createdAt,value
2022-11-14T11:17:55.680Z,100854.06
2022-11-14T11:20:30.201Z,100856.56
2022-11-14T11:23:04.884Z,100848.81
2022-11-14T11:25:33.242Z,100840.91
2022-11-14T11:28:08.535Z,100824.19
2022-11-14T11:30:36.515Z,100852.50
2022-11-14T11:33:23.096Z,100844.06
2022-11-14T11:35:51.500Z,100840.38
2022-11-14T11:38:19.453Z,100838.38
2022-11-14T11:40:48.567Z,100834.28
2022-11-14T11:43:42.858Z,100828.88
2022-11-14T11:46:14.849Z,100826.88
2022-11-14T11:48:44.213Z,100817.38
2022-11-14T11:51:15.291Z,100824.19
2022-11-14T11:53:44.511Z,100827.88
2022-11-14T11:56:13.883Z,100814.41
2022-11-14T11:58:44.967Z,100823.19
2022-11-14T12:01:13.486Z,100827.91
2022-11-14T12:03:43.353Z,100827.19
2022-11-14T12:06:15.363Z,100818.41
2022-11-14T12:08:48.828Z,100822.13
2022-11-14T12:11:18.701Z,100822.66
2022-11-14T12:14:19.285Z,100822.50
2022-11-14T12:17:03.997Z,100822.34
2022-11-14T12:19:39.180Z,100826.47
2022-11-14T12:22:37.204Z,100827.00
2022-11-14T12:25:20.166Z,100824.94
2022-11-14T12:27:57.533Z,100831.72
2022-11-14T12:30:25.803Z,100821.56
2022-11-14T12:32:54.866Z,100825.16
2022-11-14T12:35:26.394Z,100815.34
2022-11-14T12:37:56.325Z,100817.00
2022-11-14T12:40:30.043Z,100814.91
2022-11-14T12:42:58.104Z,100810.22
2022-11-14T12:45:57.440Z,100812.75
2022-11-14T12:48:34.520Z,100814.91
2022-11-14T12:51:04.481Z,100814.59
2022-11-14T12:53:39.650Z,100813.66
2022-11-14T12:56:24.883Z,100811.66
2022-11-14T12:59:05.310Z,100809.66
2022-11-14T13:01:42.652Z,100810.69
2022-11-14T13:04:22.552Z,100807.00
2022-11-14T13:06:59.442Z,100810.69
2022-11-14T13:09:41.690Z,100815.53
2022-11-14T13:12:48.810Z,100805.97
2022-11-14T13:15:49.434Z,100814.81
2022-11-14T13:18:40.466Z,100804.16
2022-11-14T13:21:42.255Z,100806.19
2022-11-14T13:24:15.936Z,100812.06
2022-11-14T13:26:45.424Z,100801.41
2022-11-14T13:29:57.800Z,100812.59
2022-11-14T13:33:06.504Z,100806.47
2022-11-14T13:35:50.268Z,100798.09
2022-11-14T13:38:54.437Z,100801.78
2022-11-14T13:41:56.998Z,100788.59
2022-11-14T13:44:53.207Z,100802.16
2022-11-14T13:47:30.291Z,100798.16
2022-11-14T13:50:01.378Z,100793.63
2022-11-14T13:52:31.685Z,100794.97
2022-11-14T13:54:59.723Z,100793.13
2022-11-14T13:57:35.797Z,100798.81
2022-11-14T14:00:16.811Z,100790.44
2022-11-14T14:03:10.764Z,100781.66
2022-11-14T14:05:49.836Z,100769.84
2022-11-14T14:08:24.440Z,100784.44
2022-11-14T14:10:58.375Z,100782.75
2022-11-14T14:13:40.524Z,100773.97
2022-11-14T14:16:10.910Z,100775.97
2022-11-14T14:18:46.214Z,100775.66
2022-11-14T14:21:19.523Z,100780.19
2022-11-14T14:23:49.614Z,100770.59
2022-11-14T14:26:22.115Z,100748.63
2022-11-14T14:28:56.452Z,100778.97
2022-11-14T14:31:24.490Z,100781.16
2022-11-14T14:33:52.837Z,100782.84
2022-11-14T14:36:22.468Z,100778.31
2022-11-14T14:38:50.443Z,100775.94
2022-11-14T14:41:19.925Z,100763.13
2022-11-14T14:43:54.568Z,100763.13
2022-11-14T14:46:32.660Z,100766.47
2022-11-14T14:49:01.684Z,100760.72
2022-11-14T14:51:33.900Z,100768.50
2022-11-14T14:54:01.888Z,100752.13
2022-11-14T14:56:29.973Z,100755.19
2022-11-14T14:58:59.309Z,100758.03
2022-11-14T15:01:29.821Z,100741.47
2022-11-14T15:03:58.759Z,100761.38
2022-11-14T15:06:31.179Z,100759.50
2022-11-14T15:08:59.251Z,100760.69
2022-11-14T15:11:32.280Z,100761.53
2022-11-14T15:14:02.121Z,100766.06
2022-11-14T15:16:30.209Z,100762.38
2022-11-14T15:18:58.471Z,100760.69
2022-11-14T15:21:30.892Z,100763.53
2022-11-14T16:36:14.394Z,100761.09
2022-11-14T16:38:42.317Z,100771.00
2022-11-14T16:41:10.423Z,100761.63
2022-11-14T16:43:38.360Z,100761.63
2022-11-14T16:46:06.625Z,100763.63
2022-11-14T16:48:34.635Z,100762.63
2022-11-14T16:51:14.964Z,100764.63
2022-11-14T16:53:55.970Z,100769.00
2022-11-14T16:56:23.963Z,100755.56
2022-11-14T16:58:55.397Z,100757.94
2022-11-14T17:01:23.343Z,100752.22
2022-11-14T17:03:51.349Z,100754.63
2022-11-14T17:06:19.262Z,100753.63
2022-11-14T17:08:47.199Z,100759.00
2022-11-14T17:11:16.564Z,100755.31
2022-11-14T17:13:44.491Z,100753.91
2022-11-14T17:16:12.448Z,100759.63
2022-11-14T17:18:40.669Z,100758.47
2022-11-14T17:21:08.939Z,100759.31
2022-11-14T17:23:36.885Z,100752.78
2022-11-14T17:26:05.115Z,100751.63
2022-11-14T17:28:34.591Z,100750.63
2022-11-14T17:31:07.361Z,100747.53
2022-11-14T17:33:35.333Z,100752.78
2022-11-14T17:36:07.183Z,100745.38
2022-11-14T17:38:35.404Z,100745.03
2022-11-14T17:41:05.757Z,100744.19
2022-11-14T17:43:39.143Z,100742.53
2022-11-14T17:46:15.194Z,100741.69
2022-11-14T17:48:43.776Z,100742.84
2022-11-14T17:51:12.682Z,100744.19
2022-11-14T17:53:40.612Z,100747.59
2022-11-14T17:56:09.009Z,100734.97
2022-11-14T17:58:38.282Z,100731.13
2022-11-14T18:01:10.840Z,100736.50
2022-11-14T18:03:38.861Z,100730.59
2022-11-14T18:06:08.535Z,100729.09
2022-11-14T18:08:36.574Z,100733.13
2022-11-14T18:11:04.567Z,100735.66
2022-11-14T18:13:32.497Z,100734.50
2022-11-14T18:16:04.794Z,100731.66
2022-11-14T18:18:33.248Z,100737.88
2022-11-14T18:21:07.436Z,100736.22
2022-11-14T18:23:36.037Z,100729.13
2022-11-14T18:26:10.089Z,100729.44
2022-11-14T18:28:38.056Z,100727.06
2022-11-14T18:31:10.146Z,100732.59
2022-11-14T18:33:38.255Z,100731.09
2022-11-14T18:36:08.832Z,100732.78
2022-11-14T18:38:36.770Z,100734.78
2022-11-14T18:41:05.170Z,100729.00
2022-11-14T18:43:34.103Z,100728.28
2022-11-14T18:46:08.472Z,100734.34
2022-11-14T18:48:36.618Z,100740.22
2022-11-14T18:51:04.978Z,100724.38
2022-11-14T18:53:33.533Z,100728.63
2022-11-14T18:56:04.678Z,100728.91
2022-11-14T18:58:32.802Z,100727.88
2022-11-14T19:01:00.804Z,100729.88
2022-11-14T19:03:31.712Z,100726.47
2022-11-14T19:06:03.183Z,100731.56
2022-11-14T19:08:31.104Z,100738.94
2022-11-14T19:11:01.757Z,100737.22
2022-11-14T19:13:29.839Z,100727.88
2022-11-14T19:16:02.399Z,100732.56
2022-11-14T19:18:32.036Z,100720.75
2022-11-14T19:21:00.151Z,100725.13
2022-11-14T19:23:28.301Z,100717.75
2022-11-14T19:25:59.605Z,100721.75
2022-11-14T19:28:27.651Z,100719.41
2022-11-14T19:30:55.612Z,100721.78
2022-11-14T19:33:23.563Z,100717.75
2022-11-14T19:35:52.858Z,100719.09
2022-11-14T19:38:20.801Z,100714.03
2022-11-14T19:40:51.085Z,100717.41
2022-11-14T19:43:19.117Z,100706.66
2022-11-14T19:45:47.032Z,100712.56
2022-11-14T19:48:15.055Z,100710.03
2022-11-14T19:50:42.986Z,100716.09
2022-11-14T19:53:12.668Z,100723.84
2022-11-14T19:55:40.586Z,100711.19
2022-11-14T19:58:08.506Z,100713.41
2022-11-14T20:00:36.452Z,100711.44
2022-11-14T20:03:04.441Z,100714.13
2022-11-14T20:05:33.476Z,100715.97
2022-11-14T20:08:01.417Z,100713.09
2022-11-14T20:10:30.730Z,100707.41
2022-11-14T20:12:58.672Z,100713.09
2022-11-14T20:15:26.848Z,100715.47
2022-11-14T20:17:54.796Z,100711.44
2022-11-14T20:20:22.740Z,100719.16
2022-11-14T20:22:50.702Z,100720.16
2022-11-14T20:25:18.663Z,100714.13
2022-11-14T20:27:49.109Z,100713.09
2022-11-14T20:30:17.133Z,100707.41
2022-11-14T20:32:45.088Z,100712.47
2022-11-14T20:35:13.035Z,100702.03
2022-11-14T20:37:40.962Z,100702.72
2022-11-14T20:40:09.854Z,100701.72
2022-11-14T20:42:37.778Z,100703.06
2022-11-14T20:45:07.849Z,100710.13
2022-11-14T20:47:35.767Z,100704.44
2022-11-14T20:50:03.945Z,100706.28
2022-11-14T20:52:32.048Z,100706.13
2022-11-14T20:55:00.560Z,100698.22
2022-11-14T20:57:28.490Z,100699.06
2022-11-14T20:59:56.438Z,100708.13
2022-11-14T21:02:25.759Z,100704.44
2022-11-14T21:04:53.689Z,100706.97
2022-11-14T21:07:21.669Z,100700.75
2022-11-14T21:10:09.585Z,100703.28
2022-11-14T21:12:37.557Z,100700.75
2022-11-14T21:15:05.685Z,100702.44
2022-11-14T21:17:34.998Z,100699.06
2022-11-14T21:20:02.953Z,100695.69
2022-11-14T21:22:30.869Z,100698.69
2022-11-14T21:24:58.795Z,100692.31
2022-11-14T21:27:26.764Z,100696.53
2022-11-14T21:29:55.158Z,100692.31
2022-11-14T21:32:23.117Z,100694.00
2022-11-14T21:34:52.445Z,100688.63
2022-11-14T21:37:20.468Z,100683.22
2022-11-14T21:39:49.166Z,100681.22
2022-11-14T21:42:18.585Z,100674.16
2022-11-14T21:44:46.794Z,100681.53
2022-11-14T21:47:14.707Z,100673.16
2022-11-14T21:49:42.634Z,100671.47
2022-11-14T21:52:11.924Z,100667.44
2022-11-14T21:54:39.893Z,100666.94
2022-11-14T21:57:10.271Z,100661.72
2022-11-14T21:59:38.564Z,100654.13
2022-11-14T22:02:23.926Z,100664.75
2022-11-14T22:04:51.893Z,100664.06
2022-11-14T22:07:21.312Z,100657.97
2022-11-14T22:09:49.326Z,100650.19
2022-11-14T22:12:17.268Z,100656.59
2022-11-14T22:14:45.213Z,100647.69
2022-11-14T22:17:13.116Z,100648.53
2022-11-14T22:19:41.060Z,100646.53
2022-11-14T22:22:09.078Z,100643.00
2022-11-14T22:24:38.383Z,100634.78
2022-11-14T22:27:06.329Z,100639.16
2022-11-14T22:29:34.227Z,100635.59
2022-11-14T22:32:02.171Z,100637.06
2022-11-14T22:34:30.092Z,100629.66
2022-11-14T22:36:58.038Z,100629.66
2022-11-14T22:39:25.968Z,100631.34
2022-11-14T22:41:55.244Z,100618.06
2022-11-14T22:44:23.136Z,100623.97
2022-11-14T22:46:51.050Z,100620.94
2022-11-14T22:49:21.216Z,100623.63
2022-11-14T22:51:49.364Z,100618.59
2022-11-14T22:54:18.630Z,100620.94
2022-11-14T22:56:46.529Z,100610.50
2022-11-14T22:59:15.838Z,100607.69
2022-11-14T23:01:43.788Z,100606.47
2022-11-14T23:04:11.741Z,100612.19
2022-11-14T23:06:39.691Z,100605.91
2022-11-14T23:09:07.712Z,100606.69
2022-11-14T23:11:35.660Z,100596.16
2022-11-14T23:14:03.587Z,100594.16
2022-11-14T23:16:33.846Z,100600.00
2022-11-14T23:19:02.669Z,100606.69
2022-11-14T23:21:31.573Z,100602.84
2022-11-14T23:24:00.223Z,100600.34
2022-11-14T23:26:28.553Z,100580.88
2022-11-14T23:28:56.488Z,100601.72
2022-11-14T23:31:24.468Z,100598.03
2022-11-14T23:33:54.495Z,100592.34
2022-11-14T23:36:22.445Z,100589.59
2022-11-14T23:38:50.484Z,100596.66
2022-11-14T23:41:19.288Z,100598.19
2022-11-14T23:43:47.244Z,100588.13
2022-11-14T23:46:15.221Z,100594.03
2022-11-14T23:48:43.189Z,100586.97
2022-11-14T23:51:13.773Z,100594.88
2022-11-14T23:53:41.860Z,100587.59
2022-11-14T23:56:12.294Z,100589.94
2022-11-14T23:58:40.217Z,100585.41
